createdAt,value
2022-12-17T00:01:54.186Z,43.00
2022-12-17T00:04:40.685Z,44.30
2022-12-17T00:07:27.921Z,45.40
2022-12-17T00:10:14.866Z,43.10
2022-12-17T00:13:01.874Z,37.90
2022-12-17T00:15:52.087Z,42.50
2022-12-17T00:18:39.804Z,43.50
2022-12-17T00:21:29.915Z,44.20
2022-12-17T00:24:16.628Z,41.90
2022-12-17T00:29:55.958Z,38.00
2022-12-17T00:32:43.077Z,40.30
2022-12-17T00:35:31.864Z,40.40
2022-12-17T00:38:18.564Z,40.80
2022-12-17T00:43:57.325Z,36.80
2022-12-17T00:46:44.296Z,38.40
2022-12-17T00:49:31.468Z,38.10
2022-12-17T00:52:18.191Z,38.40
2022-12-17T00:57:51.708Z,34.50
2022-12-17T01:00:38.962Z,36.00
2022-12-17T01:03:28.446Z,34.30
2022-12-17T01:06:15.149Z,25.90
2022-12-17T01:11:48.426Z,33.60
2022-12-17T01:14:35.431Z,34.10
2022-12-17T01:17:22.343Z,32.60
2022-12-17T01:20:09.230Z,33.70
2022-12-17T01:22:56.426Z,34.60
2022-12-17T01:25:43.975Z,35.50
2022-12-17T01:28:30.843Z,35.10
2022-12-17T01:31:17.717Z,34.20
2022-12-17T01:34:05.650Z,33.20
2022-12-17T01:36:52.426Z,33.40
2022-12-17T01:39:39.385Z,37.50
2022-12-17T01:42:33.068Z,35.60
2022-12-17T01:45:21.920Z,34.20
2022-12-17T01:48:16.880Z,29.30
2022-12-17T01:51:08.573Z,34.10
2022-12-17T01:54:00.192Z,35.10
2022-12-17T01:56:47.216Z,35.10
2022-12-17T01:59:34.387Z,33.80
2022-12-17T02:02:22.125Z,36.10
2022-12-17T02:05:09.426Z,33.60
2022-12-17T02:08:16.242Z,35.80
2022-12-17T02:11:08.542Z,33.90
2022-12-17T02:14:04.303Z,36.30
2022-12-17T02:16:58.068Z,35.50
2022-12-17T02:20:00.642Z,34.30
2022-12-17T02:22:57.229Z,29.50
2022-12-17T02:26:01.483Z,33.60
2022-12-17T02:28:49.070Z,31.10
2022-12-17T02:31:36.993Z,33.70
2022-12-17T02:34:23.713Z,31.70
2022-12-17T02:39:58.764Z,29.20
2022-12-17T02:42:47.732Z,31.30
2022-12-17T02:45:36.028Z,30.80
2022-12-17T02:48:24.990Z,31.20
2022-12-17T02:51:12.194Z,29.80
2022-12-17T02:54:04.640Z,31.30
2022-12-17T02:56:53.315Z,31.20
2022-12-17T02:59:40.290Z,25.80
2022-12-17T03:02:32.505Z,29.20
2022-12-17T03:05:43.856Z,29.80
2022-12-17T03:08:31.830Z,31.50
2022-12-17T03:11:18.898Z,30.60
2022-12-17T03:14:05.484Z,28.60
2022-12-17T03:19:39.609Z,28.00
2022-12-17T03:22:26.576Z,30.80
2022-12-17T03:25:13.317Z,29.60
2022-12-17T03:28:02.285Z,30.50
2022-12-17T03:30:49.508Z,30.80
2022-12-17T03:33:36.855Z,31.00
2022-12-17T03:36:23.988Z,31.80
2022-12-17T03:39:10.858Z,32.80
2022-12-17T03:41:57.621Z,30.60
2022-12-17T03:44:44.348Z,27.10
2022-12-17T03:50:17.971Z,29.90
2022-12-17T03:53:04.754Z,28.40
2022-12-17T03:55:52.171Z,31.20
2022-12-17T03:58:39.140Z,29.70
2022-12-17T04:01:25.969Z,29.90
2022-12-17T04:04:13.016Z,32.90
2022-12-17T04:07:00.436Z,29.90
2022-12-17T04:09:47.254Z,26.80
2022-12-17T04:12:33.869Z,32.80
2022-12-17T04:18:08.202Z,28.90
2022-12-17T04:20:55.077Z,31.80
2022-12-17T04:23:42.580Z,28.00
2022-12-17T04:26:29.955Z,32.90
2022-12-17T04:29:16.775Z,32.80
2022-12-17T04:32:17.259Z,32.80
2022-12-17T04:35:04.095Z,32.60
2022-12-17T04:37:50.899Z,33.50
2022-12-17T04:40:40.887Z,32.60
2022-12-17T04:43:42.246Z,32.50
2022-12-17T04:46:29.359Z,33.10
2022-12-17T04:49:16.125Z,29.30
2022-12-17T04:54:49.705Z,31.20
2022-12-17T04:57:36.633Z,30.70
2022-12-17T05:00:23.801Z,29.70
2022-12-17T05:03:11.001Z,31.50
2022-12-17T05:05:58.342Z,31.40
2022-12-17T05:08:45.205Z,31.70
2022-12-17T05:11:31.904Z,30.00
2022-12-17T05:17:16.269Z,29.70
2022-12-17T05:20:03.433Z,31.50
2022-12-17T05:22:50.651Z,32.10
2022-12-17T05:25:57.420Z,32.40
2022-12-17T05:28:44.136Z,28.40
2022-12-17T05:31:31.198Z,33.30
2022-12-17T05:34:18.328Z,34.30
2022-12-17T05:37:05.591Z,33.00
2022-12-17T05:42:39.121Z,30.30
2022-12-17T05:48:16.978Z,30.70
2022-12-17T05:51:10.644Z,33.20
2022-12-17T05:53:57.400Z,32.20
2022-12-17T05:56:44.441Z,31.00
2022-12-17T05:59:31.542Z,31.40
2022-12-17T06:02:18.536Z,34.00
2022-12-17T06:05:05.317Z,30.80
2022-12-17T06:07:52.064Z,33.70
2022-12-17T06:10:52.355Z,31.90
2022-12-17T06:13:39.365Z,30.40
2022-12-17T06:16:26.546Z,30.50
2022-12-17T06:19:13.714Z,33.00
2022-12-17T06:22:00.528Z,30.00
2022-12-17T06:24:47.577Z,32.60
2022-12-17T06:27:34.529Z,31.80
2022-12-17T06:30:21.564Z,32.30
2022-12-17T06:33:08.693Z,32.20
2022-12-17T06:35:55.853Z,32.70
2022-12-17T06:38:42.640Z,29.70
2022-12-17T06:41:29.770Z,30.30
2022-12-17T06:44:16.765Z,29.40
2022-12-17T06:47:03.866Z,30.10
2022-12-17T06:49:50.857Z,29.50
2022-12-17T06:52:37.913Z,31.80
2022-12-17T06:55:25.246Z,31.90
2022-12-17T06:58:16.500Z,27.90
2022-12-17T07:01:03.994Z,27.20
2022-12-17T07:03:51.005Z,31.40
2022-12-17T07:06:37.698Z,27.00
2022-12-17T07:09:24.628Z,27.60
2022-12-17T07:12:15.922Z,30.40
2022-12-17T07:15:02.912Z,30.30
2022-12-17T07:17:49.786Z,31.50
2022-12-17T07:20:36.703Z,30.90
2022-12-17T07:23:23.736Z,34.40
2022-12-17T07:28:57.216Z,39.50
2022-12-17T07:31:44.012Z,37.10
2022-12-17T07:34:32.410Z,36.40
2022-12-17T07:37:20.777Z,36.90
2022-12-17T07:40:07.665Z,32.80
2022-12-17T07:42:54.292Z,30.40
2022-12-17T07:48:28.147Z,32.60
2022-12-17T07:51:14.933Z,31.20
2022-12-17T07:56:48.359Z,33.30
2022-12-17T07:59:34.984Z,36.00
2022-12-17T08:02:22.039Z,33.30
2022-12-17T08:05:08.963Z,34.50
2022-12-17T08:07:55.822Z,34.10
2022-12-17T08:10:44.516Z,34.50
2022-12-17T08:13:31.332Z,34.40
2022-12-17T08:19:04.400Z,37.30
2022-12-17T08:21:51.888Z,38.20
2022-12-17T08:24:39.446Z,40.60
2022-12-17T08:27:26.336Z,38.30
2022-12-17T08:30:13.209Z,40.90
2022-12-17T08:33:00.187Z,39.90
2022-12-17T08:35:47.001Z,42.20
2022-12-17T08:38:33.935Z,38.10
2022-12-17T08:41:20.819Z,42.60
2022-12-17T08:44:07.532Z,42.50
2022-12-17T08:49:41.501Z,39.10
2022-12-17T08:52:28.435Z,40.70
2022-12-17T08:55:15.375Z,41.70
2022-12-17T08:58:14.908Z,39.80
2022-12-17T09:01:02.761Z,42.90
2022-12-17T09:03:49.951Z,48.40
2022-12-17T09:06:39.253Z,46.30
2022-12-17T09:09:26.761Z,47.00
2022-12-17T09:12:13.677Z,46.70
2022-12-17T09:15:00.401Z,47.40
2022-12-17T09:17:50.076Z,50.90
2022-12-17T09:20:36.986Z,47.30
2022-12-17T09:23:23.805Z,46.80
2022-12-17T09:26:14.922Z,42.10
2022-12-17T09:29:01.760Z,43.70
2022-12-17T09:31:50.829Z,44.60
2022-12-17T09:34:38.187Z,45.70
2022-12-17T09:37:25.941Z,45.40
2022-12-17T09:40:12.772Z,45.80
2022-12-17T09:43:02.505Z,48.10
2022-12-17T09:46:02.673Z,42.60
2022-12-17T09:49:20.707Z,46.10
2022-12-17T09:52:07.306Z,40.50
2022-12-17T09:57:54.756Z,46.60
2022-12-17T10:00:47.259Z,47.20
2022-12-17T10:03:37.849Z,44.50
2022-12-17T10:06:36.654Z,43.90
2022-12-17T10:09:37.970Z,43.30
2022-12-17T10:12:43.086Z,40.00
2022-12-17T10:15:33.541Z,43.30
2022-12-17T10:18:25.644Z,45.00
2022-12-17T10:21:21.589Z,44.40
2022-12-17T10:24:28.152Z,37.20
2022-12-17T10:27:15.624Z,45.90
2022-12-17T10:30:03.388Z,40.90
2022-12-17T10:32:50.267Z,42.90
2022-12-17T10:35:44.666Z,43.40
2022-12-17T10:38:43.094Z,45.20
2022-12-17T10:41:53.854Z,40.90
2022-12-17T10:44:49.986Z,43.80
2022-12-17T10:47:39.189Z,41.10
2022-12-17T10:50:41.188Z,44.10
2022-12-17T10:53:38.563Z,45.00
2022-12-17T10:56:26.181Z,43.10
2022-12-17T10:59:13.872Z,44.20
2022-12-17T11:02:01.741Z,46.40
2022-12-17T11:04:48.733Z,46.10
2022-12-17T11:07:58.701Z,42.80
2022-12-17T11:10:49.694Z,41.80
2022-12-17T11:14:01.398Z,42.80
2022-12-17T11:16:53.516Z,39.40
2022-12-17T11:19:52.852Z,42.20
2022-12-17T11:23:01.741Z,43.50
2022-12-17T11:26:15.026Z,42.40
2022-12-17T11:29:02.066Z,43.30
2022-12-17T11:32:14.474Z,44.50
2022-12-17T11:35:52.454Z,41.80
2022-12-17T11:38:51.856Z,42.40
2022-12-17T11:42:40.491Z,44.90
2022-12-17T11:45:58.329Z,43.30
2022-12-17T11:48:58.864Z,47.40
2022-12-17T11:52:10.587Z,44.50
2022-12-17T11:55:19.121Z,49.80
2022-12-17T11:58:36.104Z,43.50
2022-12-17T12:01:49.735Z,48.30
2022-12-17T12:04:44.456Z,47.00
2022-12-17T12:07:54.539Z,47.20
2022-12-17T12:10:55.447Z,50.00
2022-12-17T12:14:09.103Z,48.00
2022-12-17T12:17:25.131Z,50.10
2022-12-17T12:20:31.369Z,51.00
2022-12-17T12:23:59.671Z,51.30
2022-12-17T12:26:59.347Z,45.00
2022-12-17T12:30:12.461Z,48.00
2022-12-17T12:33:08.412Z,48.10
2022-12-17T12:35:58.395Z,48.50
2022-12-17T12:38:54.481Z,50.20
2022-12-17T12:41:56.527Z,52.90
2022-12-17T12:45:00.234Z,41.50
2022-12-17T12:48:10.998Z,52.00
2022-12-17T12:51:08.489Z,49.80
2022-12-17T12:54:12.079Z,48.20
2022-12-17T12:56:59.037Z,43.10
2022-12-17T12:59:51.868Z,50.00
2022-12-17T13:02:48.445Z,46.50
2022-12-17T13:05:34.934Z,51.40
2022-12-17T13:08:09.239Z,53.00
2022-12-17T13:10:37.791Z,49.70
2022-12-17T13:13:37.237Z,51.90
2022-12-17T13:16:25.336Z,50.20
2022-12-17T13:19:02.486Z,55.00
2022-12-17T13:21:31.894Z,54.10
2022-12-17T13:24:11.388Z,46.30
2022-12-17T13:26:39.462Z,52.80
2022-12-17T13:29:13.157Z,50.30
2022-12-17T13:31:54.001Z,45.80
2022-12-17T13:34:26.109Z,54.20
2022-12-17T13:37:07.808Z,49.20
2022-12-17T13:40:13.269Z,44.90
2022-12-17T13:42:45.914Z,45.00
2022-12-17T13:45:21.838Z,45.50
2022-12-17T13:47:58.959Z,47.50
2022-12-17T13:50:34.874Z,47.50
2022-12-17T13:53:12.648Z,48.60
2022-12-17T13:55:46.791Z,47.40
2022-12-17T13:58:30.662Z,48.70
2022-12-17T14:01:11.069Z,44.50
2022-12-17T14:06:35.732Z,48.80
2022-12-17T14:11:52.358Z,47.70
2022-12-17T14:14:33.725Z,46.60
2022-12-17T14:17:02.683Z,49.60
2022-12-17T14:19:33.026Z,50.40
2022-12-17T14:22:01.604Z,48.50
2022-12-17T14:24:30.361Z,38.60
2022-12-17T14:27:00.587Z,50.00
2022-12-17T14:29:30.889Z,51.40
2022-12-17T14:32:02.792Z,48.00
2022-12-17T14:34:42.227Z,46.90
2022-12-17T14:37:20.083Z,46.70
2022-12-17T14:39:49.270Z,51.50
2022-12-17T14:42:29.852Z,54.60
2022-12-17T14:45:13.124Z,47.00
2022-12-17T14:47:53.461Z,50.90
2022-12-17T14:50:21.943Z,51.70
2022-12-17T14:52:57.584Z,52.40
2022-12-17T14:55:36.886Z,56.40
2022-12-17T14:58:13.969Z,50.80
2022-12-17T15:01:12.543Z,52.60
2022-12-17T15:03:46.766Z,53.40
2022-12-17T15:06:18.860Z,54.10
2022-12-17T15:08:49.334Z,54.10
2022-12-17T15:11:20.691Z,55.10
2022-12-17T15:13:52.961Z,55.00
2022-12-17T15:16:24.504Z,51.90
2022-12-17T15:18:55.856Z,53.70
2022-12-17T15:21:25.478Z,53.10
2022-12-17T15:23:53.540Z,49.70
2022-12-17T15:26:21.913Z,52.90
2022-12-17T15:28:50.051Z,51.80
2022-12-17T15:31:23.178Z,53.80
2022-12-17T15:33:53.201Z,50.70
2022-12-17T15:36:21.312Z,47.70
2022-12-17T15:38:49.362Z,50.90
2022-12-17T15:41:36.523Z,50.20
2022-12-17T15:44:04.806Z,49.50
2022-12-17T15:46:33.128Z,47.90
2022-12-17T15:49:01.387Z,51.10
2022-12-17T15:51:29.767Z,49.80
2022-12-17T15:53:58.089Z,47.10
2022-12-17T15:56:28.207Z,48.70
2022-12-17T15:58:59.832Z,48.60
2022-12-17T16:01:28.494Z,47.70
2022-12-17T16:03:57.942Z,47.30
2022-12-17T16:06:26.440Z,48.40
2022-12-17T16:08:54.534Z,46.00
2022-12-17T16:11:22.688Z,48.60
2022-12-17T16:13:54.880Z,48.80
2022-12-17T16:16:23.958Z,48.30
2022-12-17T16:18:52.794Z,46.00
2022-12-17T16:21:20.951Z,42.50
2022-12-17T16:23:49.148Z,50.20
2022-12-17T16:26:17.627Z,46.50
2022-12-17T16:28:46.153Z,48.20
2022-12-17T16:31:16.160Z,49.00
2022-12-17T16:33:47.532Z,49.40
2022-12-17T16:36:19.876Z,47.50
2022-12-17T16:38:50.576Z,50.20
2022-12-17T16:41:20.424Z,50.90
2022-12-17T16:43:49.110Z,47.60
2022-12-17T16:46:28.071Z,48.30
2022-12-17T16:48:58.348Z,51.10
2022-12-17T16:51:29.499Z,46.40
2022-12-17T16:53:59.271Z,51.00
2022-12-17T16:56:28.520Z,44.60
2022-12-17T16:58:56.976Z,50.70
2022-12-17T17:01:28.120Z,45.40
2022-12-17T17:03:57.291Z,48.10
2022-12-17T17:06:30.251Z,51.70
2022-12-17T17:09:04.799Z,50.30
2022-12-17T17:11:33.236Z,54.00
2022-12-17T17:14:02.043Z,57.10
2022-12-17T17:16:31.417Z,56.30
2022-12-17T17:19:00.227Z,49.20
2022-12-17T17:21:30.013Z,53.40
2022-12-17T17:24:16.797Z,53.50
2022-12-17T17:26:49.565Z,54.10
2022-12-17T17:29:18.236Z,55.30
2022-12-17T17:34:35.764Z,51.90
2022-12-17T17:37:03.895Z,48.40
2022-12-17T17:39:34.326Z,50.20
2022-12-17T17:42:03.111Z,53.90
2022-12-17T17:44:31.263Z,55.20
2022-12-17T17:47:00.201Z,55.50
2022-12-17T17:49:29.007Z,50.20
2022-12-17T17:52:09.387Z,55.20
2022-12-17T17:54:39.941Z,53.80
2022-12-17T17:57:09.543Z,56.60
2022-12-17T17:59:39.769Z,58.50
2022-12-17T18:02:10.789Z,57.90
2022-12-17T18:04:40.241Z,56.10
2022-12-17T18:07:24.664Z,57.30
2022-12-17T18:09:59.957Z,58.40
2022-12-17T18:12:46.643Z,56.20
2022-12-17T18:17:50.941Z,57.60
2022-12-17T18:20:19.938Z,60.30
2022-12-17T18:22:48.192Z,60.80
2022-12-17T18:25:18.569Z,61.10
2022-12-17T18:27:46.820Z,55.50
2022-12-17T18:30:16.678Z,58.70
2022-12-17T18:32:45.518Z,60.20
2022-12-17T18:35:13.604Z,56.70
2022-12-17T18:37:41.762Z,53.10
2022-12-17T18:40:10.328Z,57.00
2022-12-17T18:42:57.095Z,61.50
2022-12-17T18:45:25.355Z,58.00
2022-12-17T18:47:53.509Z,56.30
2022-12-17T18:50:21.690Z,57.30
2022-12-17T18:52:50.017Z,56.50
2022-12-17T18:55:18.238Z,55.20
2022-12-17T18:57:46.340Z,54.50
2022-12-17T19:00:15.030Z,55.60
2022-12-17T19:02:44.437Z,51.80
2022-12-17T19:05:12.985Z,50.80
2022-12-17T19:07:41.113Z,54.20
2022-12-17T19:10:09.933Z,50.80
2022-12-17T19:12:38.105Z,53.90
2022-12-17T19:15:06.912Z,56.70
2022-12-17T19:17:37.160Z,49.40
2022-12-17T19:20:06.332Z,57.80
2022-12-17T19:22:34.713Z,50.00
2022-12-17T19:25:04.368Z,55.30
2022-12-17T19:27:32.625Z,47.10
2022-12-17T19:30:07.078Z,55.80
2022-12-17T19:32:35.601Z,57.00
2022-12-17T19:35:04.090Z,61.20
2022-12-17T19:37:32.225Z,54.30
2022-12-17T19:40:00.410Z,54.80
2022-12-17T19:42:36.799Z,52.90
2022-12-17T19:45:06.055Z,53.70
2022-12-17T19:47:34.233Z,48.60
2022-12-17T19:50:02.653Z,48.80
2022-12-17T19:52:30.705Z,47.90
2022-12-17T19:54:59.072Z,47.90
2022-12-17T19:57:27.468Z,47.60
2022-12-17T19:59:55.730Z,44.40
2022-12-17T20:02:28.316Z,39.80
2022-12-17T20:04:59.464Z,46.60
2022-12-17T20:07:27.600Z,46.20
2022-12-17T20:09:55.873Z,49.00
2022-12-17T20:12:24.720Z,47.20
2022-12-17T20:14:53.315Z,44.10
2022-12-17T20:17:22.072Z,42.30
2022-12-17T20:19:53.558Z,45.70
2022-12-17T20:22:23.343Z,45.20
2022-12-17T20:24:53.285Z,45.80
2022-12-17T20:27:21.548Z,44.30
2022-12-17T20:29:49.781Z,44.30
2022-12-17T20:32:20.145Z,43.70
2022-12-17T20:34:48.426Z,44.30
2022-12-17T20:37:16.571Z,41.80
2022-12-17T20:39:45.215Z,40.70
2022-12-17T20:42:13.426Z,42.00
2022-12-17T20:44:41.768Z,42.50
2022-12-17T20:47:10.135Z,44.50
2022-12-17T20:49:38.713Z,39.60
2022-12-17T20:52:06.881Z,43.90
2022-12-17T20:54:35.211Z,41.40
2022-12-17T20:57:03.405Z,41.90
2022-12-17T20:59:32.085Z,41.50
2022-12-17T21:02:00.331Z,42.40
2022-12-17T21:04:28.563Z,43.40
2022-12-17T21:06:57.557Z,41.20
2022-12-17T21:09:26.021Z,41.30
2022-12-17T21:11:54.187Z,43.90
2022-12-17T21:14:22.448Z,41.40
2022-12-17T21:16:50.582Z,40.00
2022-12-17T21:19:20.168Z,41.50
2022-12-17T21:21:48.722Z,39.50
2022-12-17T21:24:16.836Z,41.80
2022-12-17T21:26:47.342Z,41.10
2022-12-17T21:29:17.071Z,45.00
2022-12-17T21:31:50.203Z,41.30
2022-12-17T21:34:25.598Z,38.60
2022-12-17T21:36:53.785Z,39.10
2022-12-17T21:39:21.899Z,41.90
2022-12-17T21:42:08.851Z,41.30
2022-12-17T21:44:37.211Z,37.50
2022-12-17T21:47:05.582Z,37.80
2022-12-17T21:49:33.892Z,40.20
2022-12-17T21:52:03.582Z,39.40
2022-12-17T21:54:31.811Z,38.50
2022-12-17T21:56:59.953Z,42.00
2022-12-17T21:59:28.114Z,38.50
2022-12-17T22:01:57.616Z,40.10
2022-12-17T22:04:26.542Z,36.30
2022-12-17T22:07:02.127Z,41.80
2022-12-17T22:09:46.337Z,37.10
2022-12-17T22:12:40.395Z,37.70
2022-12-17T22:15:11.241Z,39.30
2022-12-17T22:17:42.394Z,41.30
2022-12-17T22:20:11.685Z,38.30
2022-12-17T22:22:39.862Z,39.60
2022-12-17T22:25:10.399Z,35.40
2022-12-17T22:27:40.446Z,34.60
2022-12-17T22:30:33.611Z,35.50
2022-12-17T22:33:06.036Z,36.00
2022-12-17T22:37:30.518Z,33.80
2022-12-17T22:42:26.389Z,32.90
2022-12-17T22:44:41.584Z,32.10
2022-12-17T22:44:44.909Z,31.20
2022-12-17T22:47:14.664Z,31.50
2022-12-17T22:49:44.334Z,32.70
2022-12-17T22:52:13.535Z,34.10
2022-12-17T22:54:44.268Z,30.60
2022-12-17T22:57:35.430Z,32.90
2022-12-17T23:00:01.025Z,32.30
2022-12-17T23:02:29.251Z,31.20
2022-12-17T23:04:57.516Z,31.70
2022-12-17T23:07:31.550Z,30.50
2022-12-17T23:10:00.261Z,34.10
2022-12-17T23:12:47.204Z,32.10
2022-12-17T23:15:15.383Z,32.20
2022-12-17T23:17:43.836Z,32.40
2022-12-17T23:20:12.730Z,31.00
2022-12-17T23:22:40.982Z,32.20
2022-12-17T23:25:10.330Z,31.60
2022-12-17T23:27:38.975Z,31.10
2022-12-17T23:30:08.208Z,32.80
2022-12-17T23:32:37.672Z,30.40
2022-12-17T23:35:06.956Z,27.10
2022-12-17T23:37:39.749Z,31.90
2022-12-17T23:40:10.411Z,30.50
2022-12-17T23:42:38.758Z,27.70
2022-12-17T23:45:08.316Z,25.80
2022-12-17T23:47:36.442Z,27.80
2022-12-17T23:50:06.241Z,27.60
2022-12-17T23:52:34.365Z,29.20
2022-12-17T23:55:02.504Z,28.50
2022-12-17T23:57:30.599Z,25.90
2022-12-17T23:59:58.664Z,26.50
